createdAt,value
2022-12-09T00:00:10.710Z,8.75
2022-12-09T00:02:40.805Z,9.20
2022-12-09T00:05:10.756Z,8.80
2022-12-09T00:07:39.405Z,9.07
2022-12-09T00:10:09.412Z,8.70
2022-12-09T00:12:38.426Z,7.93
2022-12-09T00:15:07.786Z,7.82
2022-12-09T00:17:36.809Z,8.25
2022-12-09T00:20:09.023Z,8.38
2022-12-09T00:22:37.909Z,11.95
2022-12-09T00:25:07.267Z,13.23
2022-12-09T00:27:35.871Z,14.77
2022-12-09T00:30:05.766Z,19.00
2022-12-09T00:32:34.871Z,19.85
2022-12-09T00:35:04.434Z,16.23
2022-12-09T00:37:35.046Z,10.02
2022-12-09T00:40:04.307Z,10.27
2022-12-09T00:42:32.775Z,9.35
2022-12-09T00:45:01.925Z,13.15
2022-12-09T00:47:30.617Z,12.55
2022-12-09T00:49:59.439Z,10.15
2022-12-09T00:52:28.433Z,8.85
2022-12-09T00:54:58.193Z,8.40
2022-12-09T00:57:26.759Z,8.82
2022-12-09T00:59:54.968Z,8.10
2022-12-09T01:02:23.629Z,7.97
2022-12-09T01:04:53.236Z,8.45
2022-12-09T01:07:22.054Z,9.10
2022-12-09T01:09:50.818Z,8.35
2022-12-09T01:12:20.627Z,7.75
2022-12-09T01:14:49.141Z,9.00
2022-12-09T01:17:17.963Z,8.57
2022-12-09T01:19:46.651Z,9.05
2022-12-09T01:22:14.960Z,9.80
2022-12-09T01:24:43.216Z,9.85
2022-12-09T01:27:11.763Z,9.68
2022-12-09T01:29:41.333Z,9.60
2022-12-09T01:32:09.627Z,9.25
2022-12-09T01:34:38.284Z,7.85
2022-12-09T01:37:06.922Z,9.38
2022-12-09T01:39:35.615Z,7.70
2022-12-09T01:42:05.421Z,8.90
2022-12-09T01:44:35.756Z,8.68
2022-12-09T01:47:05.622Z,9.50
2022-12-09T01:49:43.206Z,8.82
2022-12-09T01:52:20.303Z,8.30
2022-12-09T01:54:52.248Z,8.15
2022-12-09T01:57:21.698Z,7.60
2022-12-09T01:59:52.773Z,9.15
2022-12-09T02:02:23.739Z,9.02
2022-12-09T02:04:52.683Z,8.48
2022-12-09T02:07:21.651Z,8.75
2022-12-09T02:09:53.538Z,8.77
2022-12-09T02:12:42.222Z,8.38
2022-12-09T02:15:19.155Z,8.95
2022-12-09T02:17:55.644Z,8.55
2022-12-09T02:20:30.598Z,8.88
2022-12-09T02:23:06.976Z,8.48
2022-12-09T02:25:44.594Z,8.20
2022-12-09T02:28:39.141Z,8.63
2022-12-09T02:31:25.705Z,9.48
2022-12-09T02:34:16.138Z,9.07
2022-12-09T02:36:59.020Z,7.95
2022-12-09T02:39:34.993Z,9.23
2022-12-09T02:42:07.789Z,8.68
2022-12-09T02:44:39.596Z,8.95
2022-12-09T02:47:14.598Z,7.63
2022-12-09T02:49:47.899Z,9.65
2022-12-09T02:52:18.373Z,8.40
2022-12-09T02:54:48.273Z,8.68
2022-12-09T02:57:25.398Z,8.77
2022-12-09T02:59:53.859Z,9.18
2022-12-09T03:02:29.477Z,8.52
2022-12-09T03:05:12.639Z,9.60
2022-12-09T03:07:47.932Z,8.40
2022-12-09T03:10:24.367Z,8.30
2022-12-09T03:13:03.866Z,7.90
2022-12-09T03:15:36.631Z,9.82
2022-12-09T03:18:11.819Z,9.10
2022-12-09T03:20:44.704Z,9.00
2022-12-09T03:23:17.452Z,9.02
2022-12-09T03:25:50.141Z,8.45
2022-12-09T03:28:22.934Z,7.35
2022-12-09T03:30:54.535Z,7.00
2022-12-09T03:33:25.480Z,7.43
2022-12-09T03:35:59.797Z,7.63
2022-12-09T03:38:34.363Z,7.95
2022-12-09T03:41:11.682Z,7.55
2022-12-09T03:43:48.203Z,7.25
2022-12-09T03:46:17.031Z,8.40
2022-12-09T03:48:45.974Z,8.90
2022-12-09T03:51:20.420Z,7.70
2022-12-09T03:56:24.248Z,6.28
2022-12-09T03:58:56.119Z,8.75
2022-12-09T04:01:27.349Z,9.30
2022-12-09T04:03:58.652Z,7.93
2022-12-09T04:06:29.156Z,9.10
2022-12-09T04:09:02.101Z,7.60
2022-12-09T04:11:31.703Z,7.43
2022-12-09T04:14:00.624Z,8.23
2022-12-09T04:16:29.523Z,8.25
2022-12-09T04:18:58.542Z,8.02
2022-12-09T04:21:28.625Z,7.68
2022-12-09T04:23:57.169Z,9.52
2022-12-09T04:26:25.791Z,8.90
2022-12-09T04:28:54.404Z,9.90
2022-12-09T04:31:22.949Z,9.00
2022-12-09T04:33:52.003Z,8.35
2022-12-09T04:36:21.883Z,7.28
2022-12-09T04:38:54.267Z,7.35
2022-12-09T04:41:22.856Z,6.78
2022-12-09T04:43:51.422Z,6.32
2022-12-09T04:46:20.434Z,6.57
2022-12-09T04:48:49.403Z,6.35
2022-12-09T04:51:18.311Z,6.10
2022-12-09T04:53:47.068Z,7.20
2022-12-09T04:56:19.773Z,7.72
2022-12-09T04:58:49.951Z,6.70
2022-12-09T05:01:30.070Z,6.15
2022-12-09T05:04:00.522Z,6.68
2022-12-09T05:06:29.677Z,5.70
2022-12-09T05:08:58.775Z,5.80
2022-12-09T05:11:29.074Z,6.03
2022-12-09T05:13:58.540Z,6.60
2022-12-09T05:16:27.319Z,6.10
2022-12-09T05:18:56.204Z,6.60
2022-12-09T05:21:25.285Z,6.05
2022-12-09T05:23:54.212Z,7.15
2022-12-09T05:26:24.437Z,7.25
2022-12-09T05:28:54.311Z,6.93
2022-12-09T05:31:25.303Z,8.52
2022-12-09T05:33:54.720Z,8.77
2022-12-09T05:36:27.739Z,8.35
2022-12-09T05:38:56.594Z,6.22
2022-12-09T05:41:26.064Z,8.40
2022-12-09T05:43:56.064Z,6.93
2022-12-09T05:46:24.983Z,7.65
2022-12-09T05:48:54.118Z,9.52
2022-12-09T05:51:26.353Z,10.45
2022-12-09T05:53:56.740Z,11.05
2022-12-09T05:56:26.740Z,9.15
2022-12-09T05:58:57.316Z,7.05
2022-12-09T06:01:26.519Z,6.63
2022-12-09T06:03:56.734Z,8.20
2022-12-09T06:06:28.130Z,7.40
2022-12-09T06:08:59.672Z,7.82
2022-12-09T06:11:29.402Z,8.82
2022-12-09T06:13:59.687Z,7.65
2022-12-09T06:16:28.539Z,9.27
2022-12-09T06:18:57.933Z,7.60
2022-12-09T06:21:27.321Z,14.93
2022-12-09T06:23:56.212Z,15.48
2022-12-09T06:26:27.764Z,9.13
2022-12-09T06:28:57.540Z,8.32
2022-12-09T06:31:29.113Z,10.00
2022-12-09T06:33:59.629Z,8.80
2022-12-09T06:36:30.519Z,11.98
2022-12-09T06:39:09.717Z,12.85
2022-12-09T06:41:41.420Z,11.23
2022-12-09T06:44:11.894Z,8.80
2022-12-09T06:46:42.874Z,9.02
2022-12-09T06:49:11.832Z,9.60
2022-12-09T06:51:40.504Z,11.07
2022-12-09T06:54:09.726Z,10.43
2022-12-09T06:56:38.577Z,11.30
2022-12-09T06:59:11.386Z,10.13
2022-12-09T07:01:42.036Z,9.82
2022-12-09T07:04:15.039Z,9.73
2022-12-09T07:06:46.968Z,9.18
2022-12-09T07:09:18.060Z,9.63
2022-12-09T07:11:48.218Z,8.95
2022-12-09T07:14:18.338Z,8.68
2022-12-09T07:16:48.945Z,8.27
2022-12-09T07:19:20.654Z,8.63
2022-12-09T07:21:50.859Z,10.43
2022-12-09T07:24:20.586Z,9.85
2022-12-09T07:26:50.832Z,11.05
2022-12-09T07:29:20.097Z,10.95
2022-12-09T07:31:50.434Z,10.85
2022-12-09T07:34:19.490Z,11.63
2022-12-09T07:36:48.181Z,13.10
2022-12-09T07:39:19.318Z,14.35
2022-12-09T07:41:52.075Z,11.88
2022-12-09T07:44:21.087Z,12.45
2022-12-09T07:46:51.546Z,12.65
2022-12-09T07:49:20.250Z,10.27
2022-12-09T07:51:48.956Z,9.60
2022-12-09T07:54:20.545Z,10.13
2022-12-09T07:56:49.535Z,11.23
2022-12-09T07:59:18.485Z,12.95
2022-12-09T08:01:47.333Z,17.27
2022-12-09T08:04:17.238Z,23.63
2022-12-09T08:06:46.516Z,28.02
2022-12-09T08:09:15.906Z,25.13
2022-12-09T08:11:44.753Z,22.75
2022-12-09T08:14:14.277Z,21.05
2022-12-09T08:16:44.139Z,18.83
2022-12-09T08:19:13.985Z,16.13
2022-12-09T08:21:47.281Z,15.35
2022-12-09T08:24:18.460Z,14.50
2022-12-09T08:26:47.322Z,15.90
2022-12-09T08:29:16.337Z,12.20
2022-12-09T08:31:45.790Z,12.75
2022-12-09T08:34:16.023Z,11.57
2022-12-09T08:36:45.937Z,12.32
2022-12-09T08:39:15.824Z,11.07
2022-12-09T08:41:45.652Z,11.43
2022-12-09T08:44:16.511Z,10.63
2022-12-09T08:46:50.985Z,11.27
2022-12-09T08:49:22.255Z,10.48
2022-12-09T08:51:54.500Z,9.93
2022-12-09T08:54:23.247Z,11.52
2022-12-09T08:56:55.609Z,12.35
2022-12-09T08:59:25.474Z,13.00
2022-12-09T09:01:54.548Z,13.77
2022-12-09T09:04:24.193Z,13.55
2022-12-09T09:06:54.903Z,11.07
2022-12-09T09:09:23.751Z,13.68
2022-12-09T09:11:53.261Z,13.15
2022-12-09T09:14:22.189Z,13.43
2022-12-09T09:16:50.866Z,12.35
2022-12-09T09:19:23.419Z,13.50
2022-12-09T09:21:54.000Z,13.02
2022-12-09T09:24:25.380Z,14.40
2022-12-09T09:26:54.771Z,12.50
2022-12-09T09:29:24.831Z,13.18
2022-12-09T09:31:55.333Z,13.88
2022-12-09T09:34:25.396Z,13.48
2022-12-09T09:36:57.631Z,12.98
2022-12-09T09:39:26.615Z,11.05
2022-12-09T09:42:04.410Z,11.65
2022-12-09T09:44:41.132Z,11.82
2022-12-09T09:47:18.258Z,12.47
2022-12-09T09:49:54.642Z,11.07
2022-12-09T09:52:27.645Z,12.88
2022-12-09T09:54:57.260Z,11.48
2022-12-09T09:57:33.955Z,12.13
2022-12-09T10:00:19.281Z,13.07
2022-12-09T10:03:00.265Z,11.35
2022-12-09T10:05:33.620Z,12.25
2022-12-09T10:08:34.781Z,12.82
2022-12-09T10:11:18.188Z,13.13
2022-12-09T10:13:55.491Z,13.95
2022-12-09T10:16:30.908Z,13.00
2022-12-09T10:19:09.212Z,13.05
2022-12-09T10:21:44.302Z,12.75
2022-12-09T10:24:24.211Z,12.65
2022-12-09T10:27:06.887Z,13.70
2022-12-09T10:29:52.870Z,13.60
2022-12-09T10:32:25.729Z,13.40
2022-12-09T10:34:55.166Z,14.02
2022-12-09T10:37:31.503Z,14.55
2022-12-09T10:40:30.980Z,12.88
2022-12-09T10:43:17.840Z,14.32
2022-12-09T10:48:44.599Z,13.13
2022-12-09T10:51:17.641Z,13.18
2022-12-09T10:53:49.688Z,11.98
2022-12-09T10:56:24.380Z,10.25
2022-12-09T10:59:12.117Z,11.25
2022-12-09T11:01:51.756Z,9.90
2022-12-09T11:04:28.595Z,9.32
2022-12-09T11:07:02.148Z,9.77
2022-12-09T11:09:33.498Z,9.75
2022-12-09T11:12:07.796Z,10.60
2022-12-09T11:14:39.862Z,9.82
2022-12-09T11:17:18.671Z,9.70
2022-12-09T11:19:51.813Z,9.63
2022-12-09T11:22:36.553Z,10.00
2022-12-09T11:25:27.224Z,10.07
2022-12-09T11:27:59.829Z,9.50
2022-12-09T11:30:32.637Z,9.40
2022-12-09T11:33:20.503Z,9.68
2022-12-09T11:36:01.873Z,9.52
2022-12-09T11:38:37.744Z,8.65
2022-12-09T11:41:37.332Z,8.70
2022-12-09T11:44:25.838Z,8.48
2022-12-09T11:47:01.550Z,7.95
2022-12-09T11:49:33.052Z,10.40
2022-12-09T11:52:07.488Z,9.52
2022-12-09T11:54:48.471Z,8.95
2022-12-09T11:57:28.303Z,7.97
2022-12-09T12:00:06.905Z,8.43
2022-12-09T12:02:41.964Z,7.60
2022-12-09T12:05:22.711Z,8.18
2022-12-09T12:08:02.241Z,7.38
2022-12-09T12:10:35.896Z,7.53
2022-12-09T12:13:16.266Z,7.40
2022-12-09T12:15:53.156Z,7.40
2022-12-09T12:18:23.706Z,6.97
2022-12-09T12:21:20.632Z,7.65
2022-12-09T12:24:44.781Z,7.65
2022-12-09T12:27:32.347Z,9.50
2022-12-09T12:30:09.405Z,9.13
2022-12-09T12:36:04.445Z,8.80
2022-12-09T12:38:51.522Z,8.23
2022-12-09T12:41:36.244Z,10.18
2022-12-09T12:44:52.978Z,9.52
2022-12-09T12:47:29.503Z,9.48
2022-12-09T12:50:25.131Z,10.35
2022-12-09T12:53:01.803Z,8.60
2022-12-09T12:55:48.866Z,9.05
2022-12-09T12:58:34.623Z,9.23
2022-12-09T13:01:13.769Z,9.50
2022-12-09T13:03:54.337Z,9.88
2022-12-09T13:06:36.466Z,9.48
2022-12-09T13:09:12.641Z,8.93
2022-12-09T13:11:56.263Z,8.85
2022-12-09T13:14:40.959Z,8.68
2022-12-09T13:17:14.900Z,7.95
2022-12-09T13:19:48.299Z,7.70
2022-12-09T13:22:23.027Z,8.93
2022-12-09T13:25:01.753Z,8.73
2022-12-09T13:27:38.457Z,9.00
2022-12-09T13:30:13.132Z,8.25
2022-12-09T13:35:43.748Z,8.35
2022-12-09T13:38:33.597Z,7.75
2022-12-09T13:41:22.203Z,7.38
2022-12-09T13:43:51.896Z,8.75
2022-12-09T13:46:23.645Z,8.05
2022-12-09T13:48:52.804Z,8.18
2022-12-09T13:51:22.016Z,8.30
2022-12-09T13:54:02.245Z,8.27
2022-12-09T13:56:34.098Z,9.43
2022-12-09T13:59:42.658Z,8.70
2022-12-09T14:02:24.925Z,8.00
2022-12-09T14:05:06.586Z,10.20
2022-12-09T14:07:41.759Z,9.88
2022-12-09T14:10:39.890Z,9.60
2022-12-09T14:13:29.710Z,8.75
2022-12-09T14:16:32.930Z,9.77
2022-12-09T14:19:52.665Z,9.20
2022-12-09T14:22:40.092Z,8.15
2022-12-09T14:25:54.767Z,9.18
2022-12-09T14:29:01.006Z,9.48
2022-12-09T14:32:01.671Z,10.43
2022-12-09T14:34:43.853Z,9.98
2022-12-09T14:37:41.529Z,9.38
2022-12-09T14:40:51.880Z,9.18
2022-12-09T14:44:04.098Z,10.35
2022-12-09T14:46:35.066Z,12.07
2022-12-09T14:49:13.264Z,10.65
2022-12-09T14:51:47.914Z,9.52
2022-12-09T14:56:52.216Z,9.40
2022-12-09T14:59:23.164Z,10.77
2022-12-09T15:01:57.887Z,10.32
2022-12-09T15:04:32.697Z,10.35
2022-12-09T15:07:13.773Z,9.77
2022-12-09T15:09:58.867Z,10.73
2022-12-09T15:12:32.246Z,10.55
2022-12-09T15:15:07.695Z,10.85
2022-12-09T15:17:43.191Z,11.13
2022-12-09T15:20:28.363Z,11.93
2022-12-09T15:23:00.140Z,9.68
2022-12-09T15:25:30.094Z,9.20
2022-12-09T15:28:02.057Z,8.95
2022-12-09T15:30:34.481Z,10.02
2022-12-09T15:33:03.737Z,10.63
2022-12-09T15:35:34.421Z,9.45
2022-12-09T15:38:07.387Z,9.32
2022-12-09T15:40:58.975Z,9.07
2022-12-09T15:43:27.575Z,8.43
2022-12-09T15:45:56.269Z,8.35
2022-12-09T15:48:31.181Z,11.48
2022-12-09T15:51:02.877Z,9.80
2022-12-09T15:53:37.809Z,11.07
2022-12-09T15:56:14.085Z,11.75
2022-12-09T15:58:48.460Z,11.23
2022-12-09T16:01:22.584Z,11.40
2022-12-09T16:03:53.827Z,12.35
2022-12-09T16:06:28.094Z,10.85
2022-12-09T16:08:56.683Z,10.90
2022-12-09T16:11:40.699Z,11.40
2022-12-09T16:14:10.712Z,8.90
2022-12-09T16:16:47.366Z,9.25
2022-12-09T16:19:43.490Z,9.60
2022-12-09T16:22:22.524Z,8.50
2022-12-09T16:25:14.101Z,10.00
2022-12-09T16:27:49.915Z,10.30
2022-12-09T16:30:21.986Z,9.50
2022-12-09T16:32:53.394Z,8.68
2022-12-09T16:35:25.270Z,10.38
2022-12-09T16:38:20.803Z,9.27
2022-12-09T16:44:03.920Z,9.35
2022-12-09T16:46:42.607Z,11.77
2022-12-09T16:49:11.126Z,10.02
2022-12-09T16:51:40.739Z,11.00
2022-12-09T16:54:20.794Z,10.63
2022-12-09T16:56:51.243Z,11.70
2022-12-09T16:59:20.817Z,11.63
2022-12-09T17:01:49.172Z,10.25
2022-12-09T17:04:22.703Z,12.48
2022-12-09T17:06:50.965Z,13.18
2022-12-09T17:09:19.751Z,12.93
2022-12-09T17:11:49.216Z,13.68
2022-12-09T17:14:18.239Z,13.38
2022-12-09T17:16:47.866Z,11.50
2022-12-09T17:19:16.155Z,12.38
2022-12-09T17:21:44.383Z,12.00
2022-12-09T17:24:13.289Z,10.93
2022-12-09T17:26:41.830Z,11.18
2022-12-09T17:29:10.259Z,11.75
2022-12-09T17:31:38.480Z,10.00
2022-12-09T17:34:08.416Z,10.65
2022-12-09T17:36:36.907Z,8.80
2022-12-09T17:39:06.070Z,10.35
2022-12-09T17:41:34.814Z,10.02
2022-12-09T17:44:03.278Z,10.93
2022-12-09T17:46:31.984Z,10.43
2022-12-09T17:49:01.631Z,10.73
2022-12-09T17:51:36.025Z,14.30
2022-12-09T17:54:05.624Z,12.13
2022-12-09T17:56:34.391Z,11.43
2022-12-09T17:59:08.514Z,11.43
2022-12-09T18:01:38.003Z,11.48
2022-12-09T18:04:10.347Z,14.48
2022-12-09T18:06:43.124Z,12.38
2022-12-09T18:09:14.820Z,11.63
2022-12-09T18:11:43.667Z,11.43
2022-12-09T18:14:12.075Z,9.63
2022-12-09T18:16:40.804Z,10.75
2022-12-09T18:19:12.766Z,9.50
2022-12-09T18:21:42.519Z,8.73
2022-12-09T18:24:11.423Z,9.13
2022-12-09T18:26:42.263Z,10.27
2022-12-09T18:29:11.240Z,10.10
2022-12-09T18:31:40.684Z,9.85
2022-12-09T18:34:09.455Z,11.13
2022-12-09T18:36:38.175Z,11.85
2022-12-09T18:39:08.617Z,10.20
2022-12-09T18:41:37.616Z,9.15
2022-12-09T18:44:07.844Z,10.50
2022-12-09T18:46:39.072Z,10.15
2022-12-09T18:49:10.002Z,10.07
2022-12-09T18:51:39.693Z,10.00
2022-12-09T18:54:10.357Z,9.50
2022-12-09T18:56:38.852Z,10.38
2022-12-09T18:59:08.675Z,11.45
2022-12-09T19:01:40.952Z,12.27
2022-12-09T19:04:14.252Z,10.25
2022-12-09T19:06:44.722Z,9.25
2022-12-09T19:09:17.202Z,13.93
2022-12-09T19:11:47.932Z,12.18
2022-12-09T19:14:18.371Z,9.32
2022-12-09T19:16:47.557Z,10.15
2022-12-09T19:19:18.726Z,9.55
2022-12-09T19:21:47.647Z,10.18
2022-12-09T19:24:21.540Z,9.43
2022-12-09T19:26:51.195Z,9.00
2022-12-09T19:29:20.105Z,9.48
2022-12-09T19:31:50.711Z,9.95
2022-12-09T19:34:21.507Z,10.75
2022-12-09T19:36:51.974Z,9.55
2022-12-09T19:39:25.262Z,10.07
2022-12-09T19:41:53.915Z,10.75
2022-12-09T19:44:44.243Z,12.57
2022-12-09T19:47:11.011Z,13.93
2022-12-09T19:49:41.287Z,17.08
2022-12-09T19:52:09.838Z,13.45
2022-12-09T19:54:39.523Z,15.35
2022-12-09T19:57:08.082Z,15.48
2022-12-09T19:59:37.581Z,12.70
2022-12-09T20:02:07.853Z,14.35
2022-12-09T20:04:51.733Z,13.88
2022-12-09T20:07:20.829Z,10.48
2022-12-09T20:09:50.707Z,12.43
2022-12-09T20:12:19.394Z,12.30
2022-12-09T20:14:47.874Z,9.45
2022-12-09T20:17:17.303Z,9.85
2022-12-09T20:19:45.878Z,8.48
2022-12-09T20:22:14.405Z,12.07
2022-12-09T20:24:44.066Z,13.43
2022-12-09T20:27:13.704Z,14.20
2022-12-09T20:29:42.235Z,13.70
2022-12-09T20:32:10.917Z,10.25
2022-12-09T20:34:39.775Z,10.82
2022-12-09T20:37:08.285Z,10.32
2022-12-09T20:39:36.956Z,9.73
2022-12-09T20:42:05.500Z,10.48
2022-12-09T20:44:35.116Z,10.20
2022-12-09T20:47:03.691Z,8.02
2022-12-09T20:49:32.221Z,11.27
2022-12-09T20:52:00.929Z,10.32
2022-12-09T20:54:29.242Z,10.82
2022-12-09T20:56:57.747Z,12.35
2022-12-09T20:59:26.280Z,11.10
2022-12-09T21:01:55.909Z,11.27
2022-12-09T21:04:24.493Z,11.20
2022-12-09T21:06:53.229Z,11.98
2022-12-09T21:09:26.968Z,11.95
2022-12-09T21:11:56.975Z,9.60
2022-12-09T21:14:31.123Z,10.07
2022-12-09T21:17:04.275Z,12.60
2022-12-09T21:19:34.177Z,14.20
2022-12-09T21:22:02.403Z,10.98
2022-12-09T21:24:30.898Z,11.30
2022-12-09T21:27:00.909Z,11.10
2022-12-09T21:29:32.280Z,12.85
2022-12-09T21:32:02.951Z,11.02
2022-12-09T21:34:31.707Z,12.02
2022-12-09T21:37:00.323Z,13.35
2022-12-09T21:39:29.189Z,12.15
2022-12-09T21:41:57.700Z,12.00
2022-12-09T21:44:27.011Z,13.07
2022-12-09T21:46:55.629Z,14.23
2022-12-09T21:49:25.543Z,13.50
2022-12-09T21:51:55.236Z,11.18
2022-12-09T21:54:23.737Z,12.38
2022-12-09T21:56:52.294Z,13.98
2022-12-09T21:59:20.714Z,13.20
2022-12-09T22:01:49.027Z,12.65
2022-12-09T22:04:18.675Z,12.15
2022-12-09T22:06:51.243Z,12.10
2022-12-09T22:09:20.974Z,11.15
2022-12-09T22:11:49.622Z,13.70
2022-12-09T22:14:18.437Z,12.68
2022-12-09T22:16:47.284Z,13.13
2022-12-09T22:19:19.694Z,12.63
2022-12-09T22:21:50.379Z,11.18
2022-12-09T22:24:19.171Z,12.20
2022-12-09T22:26:47.790Z,13.02
2022-12-09T22:29:18.235Z,11.45
2022-12-09T22:31:47.589Z,12.35
2022-12-09T22:34:18.645Z,12.55
2022-12-09T22:36:49.441Z,12.80
2022-12-09T22:39:21.493Z,12.82
2022-12-09T22:41:50.497Z,12.60
2022-12-09T22:44:20.923Z,12.05
2022-12-09T22:46:50.018Z,12.95
2022-12-09T22:49:18.844Z,13.95
2022-12-09T22:51:49.387Z,13.82
2022-12-09T22:54:18.156Z,13.98
2022-12-09T22:56:46.688Z,15.25
2022-12-09T22:59:16.242Z,14.90
2022-12-09T23:01:47.281Z,13.55
2022-12-09T23:04:18.743Z,15.07
2022-12-09T23:06:50.073Z,14.18
2022-12-09T23:09:21.920Z,12.90
2022-12-09T23:11:50.947Z,13.15
2022-12-09T23:14:19.799Z,13.52
2022-12-09T23:16:48.119Z,11.45
2022-12-09T23:19:16.625Z,12.93
2022-12-09T23:21:45.433Z,13.10
2022-12-09T23:24:24.469Z,14.40
2022-12-09T23:26:56.374Z,12.65
2022-12-09T23:29:25.016Z,12.15
2022-12-09T23:31:53.730Z,12.95
2022-12-09T23:34:22.406Z,13.00
2022-12-09T23:36:50.954Z,14.25
2022-12-09T23:39:20.941Z,12.82
2022-12-09T23:41:49.631Z,13.98
2022-12-09T23:44:20.055Z,14.23
2022-12-09T23:46:48.861Z,12.07
2022-12-09T23:49:17.878Z,13.63
2022-12-09T23:51:46.319Z,14.13
2022-12-09T23:54:17.355Z,13.30
2022-12-09T23:56:50.597Z,14.30
2022-12-09T23:59:21.604Z,13.05
